sensor_id;sensor_type;location;lat;lon;timestamp;P1;durP1;ratioP1;P2;durP2;ratioP2
25381;SDS011;16307;42.896;20.874;2022-08-19T11:37:49;10.55;;;5.55;;
25381;SDS011;16307;42.896;20.874;2022-08-19T11:40:35;10.45;;;5.65;;
25381;SDS011;16307;42.896;20.874;2022-08-19T11:43:21;9.65;;;5.63;;
25381;SDS011;16307;42.896;20.874;2022-08-19T11:46:08;18.75;;;5.97;;
25381;SDS011;16307;42.896;20.874;2022-08-19T11:48:57;14.38;;;5.85;;
25381;SDS011;16307;42.896;20.874;2022-08-19T11:51:45;13.02;;;5.30;;
25381;SDS011;16307;42.896;20.874;2022-08-19T11:54:31;10.35;;;5.45;;
25381;SDS011;16307;42.896;20.874;2022-08-19T11:57:18;18.52;;;5.13;;
25381;SDS011;16307;42.896;20.874;2022-08-19T12:00:05;14.52;;;5.30;;
25381;SDS011;16307;42.896;20.874;2022-08-19T12:02:52;15.32;;;5.10;;
25381;SDS011;16307;42.896;20.874;2022-08-19T12:05:40;10.45;;;5.05;;
25381;SDS011;16307;42.896;20.874;2022-08-19T12:08:27;13.30;;;5.60;;
25381;SDS011;16307;42.896;20.874;2022-08-19T12:11:13;13.20;;;5.82;;
25381;SDS011;16307;42.896;20.874;2022-08-19T12:14:00;15.07;;;5.78;;
25381;SDS011;16307;42.896;20.874;2022-08-19T12:16:46;13.43;;;5.20;;
25381;SDS011;16307;42.896;20.874;2022-08-19T12:19:36;14.68;;;5.90;;
25381;SDS011;16307;42.896;20.874;2022-08-19T12:22:22;15.45;;;5.28;;
25381;SDS011;16307;42.896;20.874;2022-08-19T12:25:10;13.95;;;5.40;;
25381;SDS011;16307;42.896;20.874;2022-08-19T12:27:57;8.05;;;5.00;;
25381;SDS011;16307;42.896;20.874;2022-08-19T12:30:43;12.57;;;6.05;;
25381;SDS011;16307;42.896;20.874;2022-08-19T12:33:29;15.93;;;5.30;;
25381;SDS011;16307;42.896;20.874;2022-08-19T12:36:17;14.27;;;5.45;;
25381;SDS011;16307;42.896;20.874;2022-08-19T12:39:03;15.93;;;6.47;;
25381;SDS011;16307;42.896;20.874;2022-08-19T12:41:50;18.08;;;5.85;;
25381;SDS011;16307;42.896;20.874;2022-08-19T12:44:40;15.57;;;6.10;;
25381;SDS011;16307;42.896;20.874;2022-08-19T12:47:27;22.83;;;7.30;;
25381;SDS011;16307;42.896;20.874;2022-08-19T12:50:16;14.88;;;7.22;;
25381;SDS011;16307;42.896;20.874;2022-08-19T12:53:02;13.25;;;5.72;;
25381;SDS011;16307;42.896;20.874;2022-08-19T12:55:54;17.55;;;5.93;;
25381;SDS011;16307;42.896;20.874;2022-08-19T12:58:42;15.20;;;5.50;;
25381;SDS011;16307;42.896;20.874;2022-08-19T13:26:50;13.70;;;4.95;;
25381;SDS011;16307;42.896;20.874;2022-08-19T14:02:42;19.73;;;6.32;;
25381;SDS011;16307;42.896;20.874;2022-08-19T14:05:29;15.18;;;5.30;;
25381;SDS011;16307;42.896;20.874;2022-08-19T14:08:16;22.27;;;5.20;;
25381;SDS011;16307;42.896;20.874;2022-08-19T14:11:03;14.25;;;4.95;;
25381;SDS011;16307;42.896;20.874;2022-08-19T14:13:51;10.73;;;4.57;;
25381;SDS011;16307;42.896;20.874;2022-08-19T14:16:37;13.57;;;5.00;;
25381;SDS011;16307;42.896;20.874;2022-08-19T14:19:23;13.60;;;4.70;;
25381;SDS011;16307;42.896;20.874;2022-08-19T14:22:14;12.20;;;4.65;;
25381;SDS011;16307;42.896;20.874;2022-08-19T14:25:07;15.75;;;4.78;;
25381;SDS011;16307;42.896;20.874;2022-08-19T14:27:55;14.45;;;4.22;;
25381;SDS011;16307;42.896;20.874;2022-08-19T14:30:42;14.20;;;4.63;;
25381;SDS011;16307;42.896;20.874;2022-08-19T14:33:30;13.18;;;4.30;;
25381;SDS011;16307;42.896;20.874;2022-08-19T14:36:16;14.13;;;4.63;;
25381;SDS011;16307;42.896;20.874;2022-08-19T14:39:03;14.30;;;4.53;;
25381;SDS011;16307;42.896;20.874;2022-08-19T14:41:49;11.73;;;4.60;;
25381;SDS011;16307;42.896;20.874;2022-08-19T14:44:36;13.82;;;4.65;;
25381;SDS011;16307;42.896;20.874;2022-08-19T14:47:22;13.98;;;4.45;;
25381;SDS011;16307;42.896;20.874;2022-08-19T14:50:09;17.67;;;4.75;;
25381;SDS011;16307;42.896;20.874;2022-08-19T14:53:04;15.80;;;5.10;;
25381;SDS011;16307;42.896;20.874;2022-08-19T14:55:57;20.45;;;5.80;;
25381;SDS011;16307;42.896;20.874;2022-08-19T14:58:43;22.50;;;6.45;;
25381;SDS011;16307;42.896;20.874;2022-08-19T15:01:30;9.68;;;5.20;;
25381;SDS011;16307;42.896;20.874;2022-08-19T15:04:17;17.42;;;5.80;;
25381;SDS011;16307;42.896;20.874;2022-08-19T15:07:03;14.15;;;5.53;;
25381;SDS011;16307;42.896;20.874;2022-08-19T15:09:49;13.93;;;5.53;;
25381;SDS011;16307;42.896;20.874;2022-08-19T15:12:36;16.88;;;5.80;;
25381;SDS011;16307;42.896;20.874;2022-08-19T15:15:25;14.63;;;4.95;;
25381;SDS011;16307;42.896;20.874;2022-08-19T15:18:12;16.55;;;5.60;;
25381;SDS011;16307;42.896;20.874;2022-08-19T15:20:58;15.20;;;5.78;;
25381;SDS011;16307;42.896;20.874;2022-08-19T15:23:45;13.15;;;6.15;;
25381;SDS011;16307;42.896;20.874;2022-08-19T15:26:35;15.25;;;5.65;;
25381;SDS011;16307;42.896;20.874;2022-08-19T15:29:21;14.48;;;5.53;;
25381;SDS011;16307;42.896;20.874;2022-08-19T15:32:10;16.48;;;5.40;;
25381;SDS011;16307;42.896;20.874;2022-08-19T15:34:56;20.33;;;5.18;;
25381;SDS011;16307;42.896;20.874;2022-08-19T15:37:42;14.30;;;5.30;;
25381;SDS011;16307;42.896;20.874;2022-08-19T15:40:29;15.38;;;5.63;;
25381;SDS011;16307;42.896;20.874;2022-08-19T15:43:15;13.23;;;4.80;;
25381;SDS011;16307;42.896;20.874;2022-08-19T15:46:03;19.25;;;5.60;;
25381;SDS011;16307;42.896;20.874;2022-08-19T15:48:50;11.73;;;5.38;;
25381;SDS011;16307;42.896;20.874;2022-08-19T15:51:42;16.17;;;6.47;;
25381;SDS011;16307;42.896;20.874;2022-08-19T15:54:31;17.00;;;7.18;;
25381;SDS011;16307;42.896;20.874;2022-08-19T15:57:17;20.63;;;7.68;;
25381;SDS011;16307;42.896;20.874;2022-08-19T16:00:12;19.35;;;7.78;;
25381;SDS011;16307;42.896;20.874;2022-08-19T16:03:16;17.95;;;6.93;;
25381;SDS011;16307;42.896;20.874;2022-08-19T16:06:26;16.73;;;6.85;;
25381;SDS011;16307;42.896;20.874;2022-08-19T16:09:12;23.90;;;7.70;;
25381;SDS011;16307;42.896;20.874;2022-08-19T16:12:01;24.90;;;6.85;;
25381;SDS011;16307;42.896;20.874;2022-08-19T16:14:48;20.55;;;7.28;;
25381;SDS011;16307;42.896;20.874;2022-08-19T16:17:34;22.73;;;6.45;;
25381;SDS011;16307;42.896;20.874;2022-08-19T16:20:21;20.60;;;6.20;;
25381;SDS011;16307;42.896;20.874;2022-08-19T16:23:08;15.15;;;6.88;;
25381;SDS011;16307;42.896;20.874;2022-08-19T16:25:55;19.50;;;6.20;;
25381;SDS011;16307;42.896;20.874;2022-08-19T16:28:41;18.35;;;6.05;;
25381;SDS011;16307;42.896;20.874;2022-08-19T16:31:27;15.88;;;5.80;;
25381;SDS011;16307;42.896;20.874;2022-08-19T16:34:14;16.98;;;5.10;;
25381;SDS011;16307;42.896;20.874;2022-08-19T16:37:00;16.83;;;5.90;;
25381;SDS011;16307;42.896;20.874;2022-08-19T16:39:46;11.85;;;5.13;;
25381;SDS011;16307;42.896;20.874;2022-08-19T16:42:33;17.92;;;5.07;;
25381;SDS011;16307;42.896;20.874;2022-08-19T16:45:19;20.15;;;5.68;;
25381;SDS011;16307;42.896;20.874;2022-08-19T16:48:06;20.55;;;6.47;;
25381;SDS011;16307;42.896;20.874;2022-08-19T16:50:56;19.45;;;6.53;;
25381;SDS011;16307;42.896;20.874;2022-08-19T16:53:42;15.82;;;5.68;;
25381;SDS011;16307;42.896;20.874;2022-08-19T16:56:29;17.27;;;5.80;;
25381;SDS011;16307;42.896;20.874;2022-08-19T16:59:15;17.20;;;5.70;;
25381;SDS011;16307;42.896;20.874;2022-08-19T17:02:02;27.48;;;11.85;;
25381;SDS011;16307;42.896;20.874;2022-08-19T17:04:49;34.55;;;11.45;;
25381;SDS011;16307;42.896;20.874;2022-08-19T17:07:43;23.80;;;11.65;;
25381;SDS011;16307;42.896;20.874;2022-08-19T17:10:29;23.30;;;11.88;;
25381;SDS011;16307;42.896;20.874;2022-08-19T17:13:15;35.40;;;10.88;;
25381;SDS011;16307;42.896;20.874;2022-08-19T17:16:01;29.35;;;9.05;;
25381;SDS011;16307;42.896;20.874;2022-08-19T17:18:48;19.45;;;6.55;;
